Philip, SD (57567)

6:51 PM MDT on September 30, 2014 (GMT -0600)
Philip | Change Station
CLOSE
Current Station
Airport
Location: Philip,
Elevation: 2208 ft
Nearby Weather Stations

Elev 2208 ft 44.05 °N, 101.60 °W | Updated 56 minutes ago

Mostly Cloudy
Mostly Cloudy
64 °F
Feels Like 64 °F
N
16
Wind Variable Wind from West
Gusts 28 mph

Today
High -- | Low -- °F
--% Chance of Precip.
Yesterday
High -- | Low -- °F
Precip. -- in
6:43 AM 6:29 PM
Waxing Crescent, 41% visible
Pressure 29.54 in
Visibility 10.0 miles
Clouds Mostly Cloudy 9000 ft
Dew Point 48 °F
Humidity 56%
Rainfall 0.01 in
Snow Depth 0 in , 1 in
UV 0 out of 12
Pollen .50 out of 12
Air Quality Not available.
Flu Activity Not available.
METAR KPHP 302355Z AUTO 28014G24KT 10SM BKN090 18/09 A2957 RMK AO2 PK WND 27027/2337 SLP003 T01780089 10194 20144 53018

More Conditions Fewer Conditions

Pressure 29.54 in
Visibility 10.0 miles
Clouds Mostly Cloudy 9000 ft
Dew Point 48 °F
Humidity 56%
Rainfall 0.01 in
Snow Depth 0 in , 1 in
UV 0 out of 12
Pollen .50 out of 12
Air Quality Not available.
Flu Activity Not available.
METAR KPHP 302355Z AUTO 28014G24KT 10SM BKN090 18/09 A2957 RMK AO2 PK WND 27027/2337 SLP003 T01780089 10194 20144 53018

More Conditions Fewer Conditions

10-Day Weather Forecast

Almanac

Astronomy

Sep. 30, 2014 Rise Set
Actual Time 6:43 AM MDT 6:29 PM MDT
Civil Twilight 6:14 AM MDT 6:57 PM MDT
Nautical Twilight 5:40 AM MDT 7:31 PM MDT
Astronomical Twilight 5:06 AM MDT 8:05 PM MDT
Moon 1:02 PM MDT (9/30) 10:52 PM MDT (9/30)
Length of Visible Light 12h 43m
Length of Day
11h 46m
Tomorrow will be 3m 1s shorter.
Waxing Crescent, 41% of the Moon is Illuminated
Today
Waxing Crescent
Oct 1
First Quarter
Oct 8
Full
Oct 15
Last Quarter
Oct 23
New

Today's Extremes

State Highs State Lows

Community

WunderPhotos

Upload Photos

1,757,801 photos uploaded!

Nearby

Snow Depth

Station Depth Elevation
North Rapid Creek 0 in 6130 ft
Blind Park 1 in 6890 ft

Earthquake Activity

City Distance Mag. Time & Date
No recent earthquake activity has been reported nearby.
Minimum magnitude displayed is 2.5.

Coastal Water Temperatures

Place Temperature
No Stations Reporting

Nearby Weather Stations